Time;durP1;ratioP1;P1;durP2;ratioP2;P2;SDS_P1;SDS_P2;PMS_P1;PMS_P2;Temp;Humidity;BMP_temperature;BMP_pressure;BME280_temperature;BME280_humidity;BME280_pressure;Samples;Min_cycle;Max_cycle;Signal;HPM_P1;HPM_P2
2022/06/05 00:02:27;;;;;;;;;;;18.20;1.00;;;;;;5078452;28;19914;-83
2022/06/05 00:05:13;;;;;;;;;;;18.20;1.00;;;;;;5091729;28;20377;-84
2022/06/05 00:07:43;;;;;;;;;;;18.10;1.00;;;;;;5078398;28;19962;-83
2022/06/05 00:10:08;;;;;;;;;;;18.10;1.00;;;;;;5092691;28;20390;-83
2022/06/05 00:12:49;;;;;;;;;;;18.10;1.00;;;;;;5085662;28;19916;-83
2022/06/05 00:15:14;;;;;;;;;;;18.00;1.00;;;;;;5096527;28;19912;-83
2022/06/05 00:17:40;;;;;;;;;;;18.00;1.00;;;;;;5091036;28;20425;-83
2022/06/05 00:20:07;;;;;;;;;;;17.90;1.00;;;;;;5068164;28;19909;-83
2022/06/05 00:22:37;;;;;;;;;;;17.90;1.00;;;;;;5059854;28;19913;-83
2022/06/05 00:25:03;;;;;;;;;;;17.80;1.00;;;;;;5089076;28;19957;-83
2022/06/05 00:27:32;;;;;;;;;;;17.80;1.00;;;;;;5084014;28;20057;-83
2022/06/05 00:30:17;;;;;;;;;;;17.80;1.00;;;;;;5096241;28;19999;-83
2022/06/05 00:32:51;;;;;;;;;;;17.70;1.00;;;;;;5075895;28;19912;-83
2022/06/05 00:35:17;;;;;;;;;;;17.70;1.00;;;;;;5077349;28;19908;-83
2022/06/05 00:38:02;;;;;;;;;;;17.70;1.00;;;;;;5067517;28;19908;-83
2022/06/05 00:40:47;;;;;;;;;;;17.70;1.00;;;;;;5082060;28;19931;-83
2022/06/05 00:43:14;;;;;;;;;;;17.60;1.00;;;;;;5086451;28;19916;-83
2022/06/05 00:45:40;;;;;;;;;;;17.50;1.00;;;;;;5095869;28;19911;-83
2022/06/05 00:48:08;;;;;;;;;;;17.50;1.00;;;;;;5083558;28;19916;-83
2022/06/05 00:50:34;;;;;;;;;;;17.50;1.00;;;;;;5074097;28;20003;-84
2022/06/05 00:53:00;;;;;;;;;;;17.50;1.00;;;;;;5072928;28;20015;-83
2022/06/05 00:55:34;;;;;;;;;;;17.50;1.00;;;;;;5094348;28;19915;-83
2022/06/05 00:58:00;;;;;;;;;;;17.50;1.00;;;;;;5068504;28;19909;-79
2022/06/05 01:00:29;;;;;;;;;;;17.40;1.00;;;;;;5082250;28;19919;-78
2022/06/05 01:02:55;;;;;;;;;;;17.50;1.00;;;;;;5075109;28;19908;-78
2022/06/05 01:05:21;;;;;;;;;;;17.50;1.00;;;;;;5091178;28;20371;-79
2022/06/05 01:07:47;;;;;;;;;;;17.40;1.00;;;;;;5090088;28;19970;-79
2022/06/05 01:10:14;;;;;;;;;;;17.40;1.00;;;;;;5091403;28;19974;-79
2022/06/05 01:12:46;;;;;;;;;;;17.40;1.00;;;;;;5085265;28;19912;-83
2022/06/05 01:15:17;;;;;;;;;;;17.40;1.00;;;;;;5094826;28;20007;-84
2022/06/05 01:17:46;;;;;;;;;;;17.40;1.00;;;;;;5077104;28;19931;-83
2022/06/05 01:20:18;;;;;;;;;;;17.40;1.00;;;;;;5091700;28;20399;-83
2022/06/05 01:22:53;;;;;;;;;;;17.40;1.00;;;;;;5072459;28;19951;-83
2022/06/05 01:25:37;;;;;;;;;;;17.30;1.00;;;;;;5093446;28;20375;-83
2022/06/05 01:28:11;;;;;;;;;;;17.30;1.00;;;;;;5101794;28;20007;-79
2022/06/05 01:30:44;;;;;;;;;;;17.30;1.00;;;;;;5090903;28;20006;-79
2022/06/05 01:33:12;;;;;;;;;;;17.30;1.00;;;;;;5092091;28;19908;-78
2022/06/05 01:35:43;;;;;;;;;;;17.20;1.00;;;;;;5089736;28;20257;-79
2022/06/05 01:38:17;;;;;;;;;;;17.20;1.00;;;;;;5093220;28;19926;-78
2022/06/05 01:40:46;;;;;;;;;;;17.20;1.00;;;;;;5090031;28;19913;-79
2022/06/05 01:43:20;;;;;;;;;;;17.10;1.00;;;;;;5094791;28;19916;-79
2022/06/05 01:45:55;;;;;;;;;;;17.10;1.00;;;;;;5090268;28;20334;-79
2022/06/05 01:48:37;;;;;;;;;;;17.10;1.00;;;;;;5094506;28;19920;-79
2022/06/05 01:51:06;;;;;;;;;;;17.10;1.00;;;;;;5090496;28;19918;-79
2022/06/05 01:53:42;;;;;;;;;;;17.10;1.00;;;;;;5094432;28;20497;-79
2022/06/05 01:56:14;;;;;;;;;;;17.10;1.00;;;;;;5088944;28;19955;-78
2022/06/05 01:58:42;;;;;;;;;;;17.00;1.00;;;;;;5093098;28;20317;-83
2022/06/05 02:01:10;;;;;;;;;;;17.00;1.00;;;;;;5085167;28;19913;-83
2022/06/05 02:03:44;;;;;;;;;;;17.00;1.00;;;;;;5092850;28;19915;-83
2022/06/05 02:06:11;;;;;;;;;;;17.00;1.00;;;;;;5085105;28;19920;-83
2022/06/05 02:08:40;;;;;;;;;;;17.00;1.00;;;;;;5094165;28;20017;-83
2022/06/05 02:11:18;;;;;;;;;;;17.00;1.00;;;;;;5085403;28;19919;-83
2022/06/05 02:13:43;;;;;;;;;;;16.90;1.00;;;;;;5083105;28;19908;-83
2022/06/05 02:16:09;;;;;;;;;;;17.00;1.00;;;;;;5086490;28;20398;-83
2022/06/05 02:18:35;;;;;;;;;;;17.00;1.00;;;;;;5067674;28;19908;-83
2022/06/05 02:21:01;;;;;;;;;;;17.00;1.00;;;;;;5057451;28;19912;-83
2022/06/05 02:23:30;;;;;;;;;;;17.10;1.00;;;;;;5067302;28;19909;-83
2022/06/05 02:25:56;;;;;;;;;;;17.10;1.00;;;;;;5077222;28;19912;-83
2022/06/05 02:28:22;;;;;;;;;;;17.10;1.00;;;;;;5094224;28;20014;-78
2022/06/05 02:30:47;;;;;;;;;;;17.20;1.00;;;;;;5082197;28;19913;-79
2022/06/05 02:33:21;;;;;;;;;;;17.30;1.00;;;;;;5093929;28;19911;-78
2022/06/05 02:36:04;;;;;;;;;;;17.30;1.00;;;;;;5083316;28;19919;-79
2022/06/05 02:38:30;;;;;;;;;;;17.30;1.00;;;;;;5093557;28;19908;-79
2022/06/05 02:40:55;;;;;;;;;;;17.40;1.00;;;;;;5077034;28;20319;-79
2022/06/05 02:43:27;;;;;;;;;;;17.40;1.00;;;;;;5086163;28;20291;-83
2022/06/05 02:46:10;;;;;;;;;;;17.50;1.00;;;;;;5079799;28;19919;-83
2022/06/05 02:48:42;;;;;;;;;;;17.50;1.00;;;;;;5093372;28;19962;-83
2022/06/05 02:51:13;;;;;;;;;;;17.60;1.00;;;;;;5074599;28;20000;-83
2022/06/05 02:53:49;;;;;;;;;;;17.50;1.00;;;;;;5076382;28;19912;-83
2022/06/05 02:56:15;;;;;;;;;;;17.60;1.00;;;;;;5074876;28;19920;-83
2022/06/05 02:58:41;;;;;;;;;;;17.60;1.00;;;;;;5078656;28;20360;-78
2022/06/05 03:03:51;;;;;;;;;;;17.70;1.00;;;;;;5091724;28;19915;-79
2022/06/05 03:06:16;;;;;;;;;;;17.70;1.00;;;;;;5087490;28;19908;-79
2022/06/05 03:08:42;;;;;;;;;;;17.70;1.00;;;;;;5090855;28;19919;-79
2022/06/05 03:11:07;;;;;;;;;;;17.80;1.00;;;;;;5080029;28;19919;-78
2022/06/05 03:13:33;;;;;;;;;;;17.80;1.00;;;;;;5079638;28;19989;-82
2022/06/05 03:15:59;;;;;;;;;;;17.90;1.00;;;;;;5102355;28;19951;-83
2022/06/05 03:18:25;;;;;;;;;;;17.90;1.00;;;;;;5062310;28;19951;-83
2022/06/05 03:20:54;;;;;;;;;;;17.90;1.00;;;;;;5087059;28;19916;-83
2022/06/05 03:23:20;;;;;;;;;;;18.00;99.90;;;;;;5067508;28;19909;-83
2022/06/05 03:25:45;;;;;;;;;;;18.10;99.90;;;;;;5083701;28;19912;-83
2022/06/05 03:28:10;;;;;;;;;;;18.10;99.90;;;;;;5093333;28;20367;-78
2022/06/05 03:30:38;;;;;;;;;;;18.10;99.90;;;;;;5087173;28;19912;-78
2022/06/05 03:33:03;;;;;;;;;;;18.10;99.90;;;;;;5093301;28;19930;-78
2022/06/05 03:35:29;;;;;;;;;;;18.20;99.90;;;;;;5069075;28;20354;-78
2022/06/05 03:37:54;;;;;;;;;;;18.20;99.90;;;;;;5080543;28;19908;-78
2022/06/05 03:40:20;;;;;;;;;;;18.20;99.90;;;;;;5076227;28;20130;-79
2022/06/05 03:42:45;;;;;;;;;;;18.20;99.90;;;;;;5080653;28;19924;-79
2022/06/05 03:45:15;;;;;;;;;;;18.20;99.90;;;;;;5079640;28;19920;-79
2022/06/05 03:47:40;;;;;;;;;;;18.30;99.90;;;;;;5069064;28;20321;-79
2022/06/05 03:50:06;;;;;;;;;;;18.30;99.90;;;;;;5093015;28;19912;-78
2022/06/05 03:52:32;;;;;;;;;;;18.30;99.90;;;;;;5093187;28;20340;-79
2022/06/05 03:55:00;;;;;;;;;;;18.30;99.90;;;;;;5078712;28;20398;-78
2022/06/05 03:57:25;;;;;;;;;;;18.30;99.90;;;;;;5074342;28;19954;-79
2022/06/05 03:59:51;;;;;;;;;;;18.30;99.90;;;;;;5076690;28;19916;-84
2022/06/05 04:02:16;;;;;;;;;;;18.40;99.90;;;;;;5084828;28;19908;-83
2022/06/05 04:04:42;;;;;;;;;;;18.40;99.90;;;;;;5073916;28;19919;-83
2022/06/05 04:07:07;;;;;;;;;;;18.40;99.90;;;;;;5092987;28;19912;-83
2022/06/05 04:09:33;;;;;;;;;;;18.40;99.90;;;;;;5090378;28;19916;-83
2022/06/05 04:11:58;;;;;;;;;;;18.40;99.90;;;;;;5082644;28;19920;-84
2022/06/05 04:14:24;;;;;;;;;;;18.50;99.90;;;;;;5073038;28;19954;-82
2022/06/05 04:16:49;;;;;;;;;;;18.50;99.90;;;;;;5072209;28;19922;-83
2022/06/05 04:19:15;;;;;;;;;;;18.60;99.90;;;;;;5092963;28;19912;-83
2022/06/05 04:21:41;;;;;;;;;;;18.60;99.90;;;;;;5073426;28;19912;-83
2022/06/05 04:24:07;;;;;;;;;;;18.70;99.90;;;;;;5093111;28;19912;-83
2022/06/05 04:26:34;;;;;;;;;;;18.70;99.90;;;;;;5092475;28;20015;-83
2022/06/05 04:29:00;;;;;;;;;;;18.70;99.90;;;;;;5078232;28;20002;-82
2022/06/05 04:31:27;;;;;;;;;;;18.70;99.90;;;;;;5093658;28;20014;-83
2022/06/05 04:33:54;;;;;;;;;;;18.80;99.90;;;;;;5094315;28;19912;-83
2022/06/05 04:36:20;;;;;;;;;;;18.80;99.90;;;;;;5076912;28;19923;-82
2022/06/05 04:38:45;;;;;;;;;;;18.80;99.90;;;;;;5083917;28;19913;-83
2022/06/05 04:41:11;;;;;;;;;;;18.80;99.90;;;;;;5087695;28;20368;-83
2022/06/05 04:43:37;;;;;;;;;;;18.90;99.90;;;;;;5091089;28;19939;-82
2022/06/05 04:46:03;;;;;;;;;;;18.90;99.90;;;;;;5088985;28;19958;-82
2022/06/05 04:48:28;;;;;;;;;;;18.90;99.90;;;;;;5072325;28;19919;-83
2022/06/05 04:50:54;;;;;;;;;;;18.90;99.90;;;;;;5071861;28;20007;-82
2022/06/05 04:53:19;;;;;;;;;;;18.90;99.90;;;;;;5090366;28;20407;-82
2022/06/05 04:55:45;;;;;;;;;;;18.90;99.90;;;;;;5088530;28;19912;-82
2022/06/05 04:58:14;;;;;;;;;;;18.90;99.90;;;;;;5076516;28;19931;-82
2022/06/05 05:00:39;;;;;;;;;;;19.00;99.90;;;;;;5089390;28;20372;-79
2022/06/05 05:03:05;;;;;;;;;;;19.00;99.90;;;;;;5089951;28;19908;-78
2022/06/05 05:05:30;;;;;;;;;;;19.00;99.90;;;;;;5089352;28;20402;-78
2022/06/05 05:07:56;;;;;;;;;;;18.90;99.90;;;;;;5095083;28;19973;-78
2022/06/05 05:10:21;;;;;;;;;;;18.90;99.90;;;;;;5088847;28;20376;-79
2022/06/05 05:12:47;;;;;;;;;;;18.90;99.90;;;;;;5076594;28;20256;-78
2022/06/05 05:15:13;;;;;;;;;;;18.90;99.90;;;;;;5091758;28;20440;-82
2022/06/05 05:17:38;;;;;;;;;;;18.90;99.90;;;;;;5077204;28;20321;-83
2022/06/05 05:20:04;;;;;;;;;;;18.90;99.90;;;;;;5074231;28;19912;-82
2022/06/05 05:22:36;;;;;;;;;;;18.90;99.90;;;;;;5093983;28;19957;-83
2022/06/05 05:25:08;;;;;;;;;;;19.00;99.90;;;;;;5083281;28;19912;-83
2022/06/05 05:27:34;;;;;;;;;;;19.00;99.90;;;;;;5091426;28;20314;-83
2022/06/05 05:29:59;;;;;;;;;;;19.10;99.90;;;;;;5092868;28;20057;-83
2022/06/05 05:32:25;;;;;;;;;;;19.20;99.90;;;;;;5095049;28;19969;-83
2022/06/05 05:34:51;;;;;;;;;;;19.30;99.90;;;;;;5093480;28;19912;-83
2022/06/05 05:37:17;;;;;;;;;;;19.40;99.90;;;;;;5094742;28;19916;-84
2022/06/05 05:42:30;;;;;;;;;;;19.60;99.90;;;;;;5076334;28;19960;-84
2022/06/05 05:45:00;;;;;;;;;;;19.60;99.90;;;;;;5075697;28;19912;-81
2022/06/05 05:47:27;;;;;;;;;;;19.70;99.90;;;;;;5081771;28;20372;-82
2022/06/05 05:49:54;;;;;;;;;;;19.80;99.90;;;;;;5089154;28;19912;-81
2022/06/05 05:52:19;;;;;;;;;;;19.80;99.90;;;;;;5093650;28;19964;-81
2022/06/05 05:54:45;;;;;;;;;;;19.90;99.90;;;;;;5080921;28;20248;-88
2022/06/05 05:57:10;;;;;;;;;;;20.00;99.90;;;;;;5055610;28;19913;-80
2022/06/05 05:59:36;;;;;;;;;;;20.00;99.90;;;;;;5073452;28;19970;-76
2022/06/05 06:02:02;;;;;;;;;;;20.10;99.90;;;;;;5079768;28;19912;-76
2022/06/05 06:04:27;;;;;;;;;;;20.10;99.90;;;;;;5094401;28;19953;-77
2022/06/05 06:06:53;;;;;;;;;;;20.10;99.90;;;;;;5089514;28;19912;-77
2022/06/05 06:09:19;;;;;;;;;;;20.10;99.90;;;;;;5075054;28;19913;-77
2022/06/05 06:11:45;;;;;;;;;;;20.10;99.90;;;;;;5087578;28;19974;-78
2022/06/05 06:14:11;;;;;;;;;;;20.10;99.90;;;;;;5086926;28;20383;-77
2022/06/05 06:16:36;;;;;;;;;;;20.10;99.90;;;;;;5075773;28;20390;-78
2022/06/05 06:19:02;;;;;;;;;;;20.10;99.90;;;;;;5094075;28;20343;-77
2022/06/05 06:21:28;;;;;;;;;;;20.00;99.90;;;;;;5091108;28;19908;-78
2022/06/05 06:23:53;;;;;;;;;;;20.00;99.90;;;;;;5086028;28;19908;-78
2022/06/05 06:26:19;;;;;;;;;;;19.90;99.90;;;;;;5093922;28;19919;-77
2022/06/05 06:28:45;;;;;;;;;;;19.80;99.90;;;;;;5093942;28;19957;-77
2022/06/05 06:31:11;;;;;;;;;;;19.80;99.90;;;;;;5094230;28;20315;-80
2022/06/05 06:33:37;;;;;;;;;;;19.70;99.90;;;;;;5075864;28;19959;-80
2022/06/05 06:36:04;;;;;;;;;;;19.60;99.90;;;;;;5093782;28;20456;-80
2022/06/05 06:38:30;;;;;;;;;;;19.60;1.00;;;;;;5093701;28;19909;-80
2022/06/05 06:41:00;;;;;;;;;;;19.50;1.00;;;;;;5071179;28;20003;-90
2022/06/05 06:43:25;;;;;;;;;;;19.40;1.00;;;;;;5064598;28;19916;-88
2022/06/05 06:45:51;;;;;;;;;;;19.40;1.00;;;;;;5071804;28;19919;-81
2022/06/05 06:48:16;;;;;;;;;;;19.40;1.00;;;;;;5075419;28;19919;-81
2022/06/05 06:50:42;;;;;;;;;;;19.30;1.00;;;;;;5086234;28;19965;-81
2022/06/05 06:53:08;;;;;;;;;;;19.40;1.00;;;;;;5089149;28;20478;-81
2022/06/05 06:55:35;;;;;;;;;;;19.40;1.00;;;;;;5082626;28;19916;-81
2022/06/05 06:58:01;;;;;;;;;;;19.50;1.00;;;;;;5072616;28;19913;-81
2022/06/05 07:00:26;;;;;;;;;;;19.60;1.00;;;;;;5079782;28;20271;-89
2022/06/05 07:02:52;;;;;;;;;;;19.70;1.00;;;;;;5059082;28;19912;-89
2022/06/05 07:05:17;;;;;;;;;;;19.80;1.00;;;;;;5056577;28;19927;-89
2022/06/05 07:07:43;;;;;;;;;;;20.00;1.00;;;;;;5073856;28;19912;-89
2022/06/05 07:10:08;;;;;;;;;;;20.30;1.00;;;;;;5055809;28;19912;-89
2022/06/05 07:12:34;;;;;;;;;;;20.50;1.00;;;;;;5065814;28;19952;-89
2022/06/05 07:15:00;;;;;;;;;;;20.80;1.00;;;;;;5072945;28;19958;-89
2022/06/05 07:17:48;;;;;;;;;;;21.10;99.90;;;;;;5071496;28;19965;-89
2022/06/05 07:20:34;;;;;;;;;;;21.30;99.90;;;;;;5084967;28;19920;-90
2022/06/05 07:23:00;;;;;;;;;;;21.50;99.90;;;;;;5057250;28;19947;-90
2022/06/05 07:28:36;;;;;;;;;;;21.80;99.90;;;;;;5069043;28;19919;-90
2022/06/05 07:31:06;;;;;;;;;;;22.10;99.90;;;;;;5062830;28;19909;-81
2022/06/05 07:33:36;;;;;;;;;;;22.30;99.90;;;;;;5076085;28;20348;-81
2022/06/05 07:36:08;;;;;;;;;;;22.50;99.90;;;;;;5081338;28;19915;-81
2022/06/05 07:45:06;;;;;;;;;;;22.70;99.90;;;;;;5057289;28;20403;-82
2022/06/05 07:47:36;;;;;;;;;;;22.60;99.90;;;;;;5073605;28;19916;-89
2022/06/05 07:50:02;;;;;;;;;;;22.50;99.90;;;;;;5057012;28;20419;-89
2022/06/05 07:55:36;;;;;;;;;;;22.60;99.90;;;;;;5079900;28;19985;-89
2022/06/05 07:58:36;;;;;;;;;;;22.70;99.90;;;;;;5057013;28;20276;-89
2022/06/05 08:01:01;;;;;;;;;;;22.80;99.90;;;;;;5095405;28;20408;-81
2022/06/05 08:06:54;;;;;;;;;;;23.10;99.90;;;;;;5094826;28;19957;-81
2022/06/05 08:09:19;;;;;;;;;;;23.20;99.90;;;;;;5081664;28;20014;-81
2022/06/05 08:11:45;;;;;;;;;;;23.30;99.90;;;;;;5083419;28;19951;-81
2022/06/05 08:14:11;;;;;;;;;;;23.30;99.90;;;;;;5088673;28;20000;-81
2022/06/05 08:16:39;;;;;;;;;;;23.40;99.90;;;;;;5068025;28;20355;-89
2022/06/05 08:19:05;;;;;;;;;;;23.50;99.90;;;;;;5064370;28;19963;-89
2022/06/05 08:21:31;;;;;;;;;;;23.60;99.90;;;;;;5078480;28;19908;-89
2022/06/05 08:23:56;;;;;;;;;;;23.60;99.90;;;;;;5067922;28;20355;-89
2022/06/05 08:26:22;;;;;;;;;;;23.50;99.90;;;;;;5068362;28;19916;-89
2022/06/05 08:28:47;;;;;;;;;;;23.50;99.90;;;;;;5071452;28;20382;-89
2022/06/05 08:31:13;;;;;;;;;;;23.50;99.90;;;;;;5073389;28;19920;-82
2022/06/05 08:33:38;;;;;;;;;;;23.40;99.90;;;;;;5095853;28;19915;-81
2022/06/05 08:36:04;;;;;;;;;;;23.30;99.90;;;;;;5091374;28;19912;-81
2022/06/05 08:41:30;;;;;;;;;;;23.00;99.90;;;;;;5092620;28;19935;-81
2022/06/05 08:43:55;;;;;;;;;;;22.90;99.90;;;;;;5070895;28;20299;-82
2022/06/05 08:46:25;;;;;;;;;;;22.70;99.90;;;;;;5088246;28;19919;-89
2022/06/05 08:49:10;;;;;;;;;;;22.60;99.90;;;;;;5090429;28;19912;-88
2022/06/05 08:51:54;;;;;;;;;;;22.50;99.90;;;;;;5083769;28;20049;-89
2022/06/05 08:54:38;;;;;;;;;;;22.40;99.90;;;;;;5102207;28;19916;-88
2022/06/05 08:57:08;;;;;;;;;;;22.50;99.90;;;;;;5082038;28;20352;-89
2022/06/05 08:59:44;;;;;;;;;;;22.50;99.90;;;;;;5088532;28;19912;-89
2022/06/05 09:02:12;;;;;;;;;;;22.50;99.90;;;;;;5085330;28;19912;-89
2022/06/05 09:04:48;;;;;;;;;;;22.60;99.90;;;;;;5075952;28;19912;-89
2022/06/05 09:07:16;;;;;;;;;;;22.80;99.90;;;;;;5078212;28;19951;-89
2022/06/05 09:09:44;;;;;;;;;;;22.90;99.90;;;;;;5078080;28;19915;-88
2022/06/05 09:12:09;;;;;;;;;;;23.00;99.90;;;;;;5078202;28;19920;-89
2022/06/05 09:14:47;;;;;;;;;;;23.20;99.90;;;;;;5096024;28;19985;-89
2022/06/05 09:17:15;;;;;;;;;;;23.30;99.90;;;;;;5078476;28;19943;-88
2022/06/05 09:19:41;;;;;;;;;;;23.40;99.90;;;;;;5096000;28;19908;-89
2022/06/05 09:22:12;;;;;;;;;;;23.40;99.90;;;;;;5095770;28;20010;-89
2022/06/05 09:24:41;;;;;;;;;;;23.30;99.90;;;;;;5075659;28;19912;-89
2022/06/05 09:27:33;;;;;;;;;;;23.20;99.90;;;;;;5102513;28;19957;-89
2022/06/05 09:30:07;;;;;;;;;;;23.10;99.90;;;;;;5076653;28;20369;-89
2022/06/05 09:32:52;;;;;;;;;;;23.00;99.90;;;;;;5077438;28;19915;-81
2022/06/05 09:35:22;;;;;;;;;;;23.00;99.90;;;;;;5094907;28;19912;-81
2022/06/05 09:38:06;;;;;;;;;;;23.10;99.90;;;;;;5094640;28;20351;-81
2022/06/05 09:40:37;;;;;;;;;;;23.20;99.90;;;;;;5110450;28;20279;-81
2022/06/05 09:43:08;;;;;;;;;;;23.20;99.90;;;;;;5085458;28;19916;-81
2022/06/05 09:45:50;;;;;;;;;;;23.20;99.90;;;;;;5094486;28;20355;-81
2022/06/05 09:48:29;;;;;;;;;;;23.20;99.90;;;;;;5076838;28;19951;-81
2022/06/05 09:50:56;;;;;;;;;;;23.20;99.90;;;;;;5094900;28;20004;-81
2022/06/05 09:53:30;;;;;;;;;;;23.30;99.90;;;;;;5110141;28;20390;-81
2022/06/05 09:56:01;;;;;;;;;;;23.30;99.90;;;;;;5088999;28;20000;-81
2022/06/05 09:58:51;;;;;;;;;;;23.40;99.90;;;;;;5073813;28;19908;-79
2022/06/05 10:01:19;;;;;;;;;;;23.60;99.90;;;;;;5035790;28;19920;-79
2022/06/05 10:03:45;;;;;;;;;;;23.60;99.90;;;;;;5028426;28;20368;-79
2022/06/05 10:06:20;;;;;;;;;;;23.70;99.90;;;;;;5032768;28;19936;-79
2022/06/05 10:08:47;;;;;;;;;;;23.90;99.90;;;;;;5029605;28;20011;-79
2022/06/05 10:11:32;;;;;;;;;;;24.10;99.90;;;;;;5031355;28;19913;-79
2022/06/05 10:13:57;;;;;;;;;;;24.30;99.90;;;;;;5045402;28;19966;-79
2022/06/05 10:16:45;;;;;;;;;;;24.60;99.90;;;;;;5051842;28;19913;-81
2022/06/05 10:19:11;;;;;;;;;;;24.80;99.90;;;;;;5040796;28;19909;-79
2022/06/05 10:21:39;;;;;;;;;;;25.20;99.90;;;;;;5051608;28;19991;-79
2022/06/05 10:24:14;;;;;;;;;;;25.50;99.90;;;;;;5060148;28;19955;-79
2022/06/05 10:26:46;;;;;;;;;;;25.60;99.90;;;;;;5047266;28;19992;-79
2022/06/05 10:29:20;;;;;;;;;;;25.60;99.90;;;;;;5050903;28;20003;-79
2022/06/05 10:31:52;;;;;;;;;;;25.70;99.90;;;;;;5042380;28;20404;-84
2022/06/05 10:34:38;;;;;;;;;;;26.00;99.90;;;;;;5068587;28;20319;-88
2022/06/05 10:37:22;;;;;;;;;;;26.10;99.90;;;;;;5039955;28;19913;-85
2022/06/05 10:40:06;;;;;;;;;;;26.20;99.90;;;;;;5095294;28;19908;-86
2022/06/05 10:42:35;;;;;;;;;;;26.40;99.90;;;;;;5079983;28;20013;-88
2022/06/05 10:45:34;;;;;;;;;;;26.70;99.90;;;;;;5077996;28;19937;-89
2022/06/05 10:48:06;;;;;;;;;;;26.90;99.90;;;;;;5009481;28;19917;-88
2022/06/05 10:50:37;;;;;;;;;;;27.10;99.90;;;;;;5006693;28;20348;-88
2022/06/05 10:53:16;;;;;;;;;;;27.40;99.90;;;;;;5012389;28;19925;-88
2022/06/05 10:55:59;;;;;;;;;;;27.60;99.90;;;;;;5012143;28;19909;-88
2022/06/05 10:58:35;;;;;;;;;;;27.80;99.90;;;;;;5010601;28;19914;-90
2022/06/05 11:01:12;;;;;;;;;;;27.90;99.90;;;;;;5019929;28;19913;-83
2022/06/05 11:03:38;;;;;;;;;;;28.10;99.90;;;;;;5023809;28;19921;-79
2022/06/05 11:06:25;;;;;;;;;;;28.50;99.90;;;;;;5022980;28;20316;-79
2022/06/05 11:09:09;;;;;;;;;;;28.50;99.90;;;;;;5010920;28;20384;-79
2022/06/05 11:14:21;;;;;;;;;;;29.00;99.90;;;;;;5010921;28;19963;-76
2022/06/05 11:16:59;;;;;;;;;;;29.00;99.90;;;;;;5008215;28;19914;-77
2022/06/05 11:19:33;;;;;;;;;;;29.00;99.90;;;;;;5015467;28;20361;-78
2022/06/05 11:22:04;;;;;;;;;;;29.00;99.90;;;;;;5012305;28;20270;-77
2022/06/05 11:24:41;;;;;;;;;;;28.60;99.90;;;;;;5065136;28;19917;-78
2022/06/05 11:27:27;;;;;;;;;;;28.40;99.90;;;;;;5072633;28;20221;-77
2022/06/05 11:30:04;;;;;;;;;;;28.10;99.90;;;;;;5074082;28;20448;-78
2022/06/05 11:32:42;;;;;;;;;;;27.90;99.90;;;;;;5072663;28;20334;-77
2022/06/05 11:35:10;;;;;;;;;;;27.60;99.90;;;;;;5091033;28;20062;-77
2022/06/05 11:37:48;;;;;;;;;;;27.40;99.90;;;;;;5084903;28;20263;-78
2022/06/05 11:40:34;;;;;;;;;;;27.40;99.90;;;;;;5075428;28;19912;-80
2022/06/05 11:43:00;;;;;;;;;;;27.00;99.90;;;;;;5067664;28;19955;-81
2022/06/05 11:48:36;;;;;;;;;;;26.60;99.90;;;;;;5078862;28;19938;-78
2022/06/05 11:51:06;;;;;;;;;;;26.40;99.90;;;;;;5090899;28;19908;-78
2022/06/05 11:53:49;;;;;;;;;;;26.30;99.90;;;;;;5053434;28;20387;-78
2022/06/05 11:59:24;;;;;;;;;;;26.00;99.90;;;;;;5087102;28;20445;-77
2022/06/05 12:02:12;;;;;;;;;;;26.00;99.90;;;;;;5076156;28;19913;-77
2022/06/05 12:05:06;;;;;;;;;;;26.00;99.90;;;;;;5087644;28;19942;-77
2022/06/05 12:07:36;;;;;;;;;;;25.90;99.90;;;;;;5070158;28;20015;-77
2022/06/05 12:10:14;;;;;;;;;;;26.00;99.90;;;;;;5090273;28;19908;-77
2022/06/05 12:16:01;;;;;;;;;;;26.10;99.90;;;;;;5074683;28;19960;-83
2022/06/05 12:18:34;;;;;;;;;;;26.10;99.90;;;;;;5093306;28;20059;-89
2022/06/05 12:21:05;;;;;;;;;;;26.20;99.90;;;;;;5063859;28;20364;-85
2022/06/05 12:23:35;;;;;;;;;;;26.30;99.90;;;;;;5077934;28;19912;-84
2022/06/05 12:26:12;;;;;;;;;;;26.20;99.90;;;;;;5096367;28;19908;-84
2022/06/05 12:28:47;;;;;;;;;;;26.10;99.90;;;;;;5096150;28;19915;-83
2022/06/05 12:31:18;;;;;;;;;;;26.00;99.90;;;;;;5084879;28;20007;-81
2022/06/05 12:33:44;;;;;;;;;;;25.90;99.90;;;;;;5082527;28;19912;-79
2022/06/05 12:36:17;;;;;;;;;;;25.70;99.90;;;;;;5094074;28;19912;-79
2022/06/05 12:38:49;;;;;;;;;;;25.70;99.90;;;;;;5094154;28;19908;-79
2022/06/05 12:41:20;;;;;;;;;;;25.60;99.90;;;;;;5085487;28;19915;-81
2022/06/05 12:44:06;;;;;;;;;;;25.50;99.90;;;;;;5089892;28;19916;-80
2022/06/05 12:46:36;;;;;;;;;;;25.30;99.90;;;;;;5095796;28;19909;-79
2022/06/05 12:49:23;;;;;;;;;;;25.10;99.90;;;;;;5078871;28;19912;-80
2022/06/05 12:52:08;;;;;;;;;;;25.00;99.90;;;;;;5082330;28;19950;-81
2022/06/05 12:54:52;;;;;;;;;;;24.80;99.90;;;;;;5084548;28;19973;-80
2022/06/05 12:57:21;;;;;;;;;;;24.70;99.90;;;;;;5075279;28;19951;-83
2022/06/05 12:59:53;;;;;;;;;;;24.60;99.90;;;;;;5065976;28;19912;-81
2022/06/05 13:02:22;;;;;;;;;;;24.50;99.90;;;;;;5095559;28;19915;-81
2022/06/05 13:04:59;;;;;;;;;;;24.30;99.90;;;;;;5093584;28;19908;-83
2022/06/05 13:07:43;;;;;;;;;;;24.30;99.90;;;;;;5078925;28;19946;-84
2022/06/05 13:10:19;;;;;;;;;;;24.20;99.90;;;;;;5111633;28;20265;-82
2022/06/05 13:12:48;;;;;;;;;;;24.10;99.90;;;;;;5060468;28;20343;-84
2022/06/05 13:15:22;;;;;;;;;;;24.00;99.90;;;;;;5095515;28;19915;-84
2022/06/05 13:18:03;;;;;;;;;;;24.00;99.90;;;;;;5095234;28;19916;-82
2022/06/05 13:20:35;;;;;;;;;;;24.00;99.90;;;;;;5095634;28;19908;-82
2022/06/05 13:23:19;;;;;;;;;;;24.10;99.90;;;;;;5094969;28;20002;-83
2022/06/05 13:25:52;;;;;;;;;;;24.40;99.90;;;;;;5094761;28;19934;-81
2022/06/05 13:28:24;;;;;;;;;;;24.50;99.90;;;;;;5094952;28;20359;-81
2022/06/05 13:30:58;;;;;;;;;;;24.70;99.90;;;;;;5094975;28;19915;-81
2022/06/05 13:33:39;;;;;;;;;;;24.90;99.90;;;;;;5083039;28;19912;-79
2022/06/05 13:36:36;;;;;;;;;;;25.00;99.90;;;;;;5081136;28;20412;-81
2022/06/05 13:39:20;;;;;;;;;;;25.10;99.90;;;;;;5091954;28;20363;-81
2022/06/05 13:42:06;;;;;;;;;;;25.50;99.90;;;;;;5082097;28;19934;-83
2022/06/05 13:44:36;;;;;;;;;;;26.20;99.90;;;;;;5068253;28;20017;-84
2022/06/05 13:47:12;;;;;;;;;;;26.70;99.90;;;;;;5074836;28;19927;-83
2022/06/05 13:55:54;;;;;;;;;;;27.00;99.90;;;;;;5088559;28;20338;-81
2022/06/05 13:58:27;;;;;;;;;;;26.90;99.90;;;;;;5075768;28;20284;-81
2022/06/05 14:01:06;;;;;;;;;;;26.70;99.90;;;;;;5086359;28;19916;-80
2022/06/05 14:03:52;;;;;;;;;;;26.70;99.90;;;;;;5088295;28;19944;-80
2022/06/05 14:06:38;;;;;;;;;;;26.80;99.90;;;;;;5074893;28;19991;-79
2022/06/05 14:09:06;;;;;;;;;;;26.70;99.90;;;;;;5085371;28;20018;-80
2022/06/05 14:11:52;;;;;;;;;;;26.70;99.90;;;;;;5082863;28;19912;-80
2022/06/05 14:14:17;;;;;;;;;;;26.70;99.90;;;;;;5074170;28;19935;-79
2022/06/05 14:16:45;;;;;;;;;;;26.70;99.90;;;;;;5088072;28;20391;-80
2022/06/05 14:19:25;;;;;;;;;;;26.70;99.90;;;;;;5080418;28;19912;-80
2022/06/05 14:22:15;;;;;;;;;;;26.60;99.90;;;;;;5068735;28;19908;-80
2022/06/05 14:24:41;;;;;;;;;;;26.50;99.90;;;;;;5051012;28;19919;-80
2022/06/05 14:27:11;;;;;;;;;;;26.50;99.90;;;;;;5044991;28;19939;-80
2022/06/05 14:29:39;;;;;;;;;;;26.60;99.90;;;;;;5026826;28;20364;-81
2022/06/05 14:32:05;;;;;;;;;;;26.90;99.90;;;;;;5043055;28;19909;-80
2022/06/05 14:34:32;;;;;;;;;;;27.20;99.90;;;;;;5051489;28;19999;-84
2022/06/05 14:37:05;;;;;;;;;;;27.40;99.90;;;;;;5042988;28;19909;-85
2022/06/05 14:39:32;;;;;;;;;;;27.40;99.90;;;;;;5048885;28;19914;-85
2022/06/05 14:42:00;;;;;;;;;;;27.40;99.90;;;;;;5031811;28;20372;-87
2022/06/05 14:44:30;;;;;;;;;;;27.20;99.90;;;;;;5037652;28;19917;-85
2022/06/05 14:47:03;;;;;;;;;;;27.20;99.90;;;;;;5051569;28;20012;-85
2022/06/05 14:49:30;;;;;;;;;;;27.00;99.90;;;;;;5038455;28;19948;-84
2022/06/05 14:52:10;;;;;;;;;;;27.00;99.90;;;;;;5051574;28;20372;-85
2022/06/05 14:57:53;;;;;;;;;;;27.00;99.90;;;;;;5042375;28;19943;-85
2022/06/05 15:00:27;;;;;;;;;;;26.70;99.90;;;;;;5019287;28;20405;-85
2022/06/05 15:03:12;;;;;;;;;;;26.60;99.90;;;;;;5035517;28;19912;-85
2022/06/05 15:05:46;;;;;;;;;;;26.50;99.90;;;;;;5078290;28;19962;-81
2022/06/05 15:08:21;;;;;;;;;;;26.20;99.90;;;;;;5093246;28;19912;-82
2022/06/05 15:10:52;;;;;;;;;;;26.10;99.90;;;;;;5092309;28;19912;-81
2022/06/05 15:13:38;;;;;;;;;;;25.80;99.90;;;;;;5056759;28;20286;-81
2022/06/05 15:16:10;;;;;;;;;;;25.60;99.90;;;;;;5063709;28;19958;-82
2022/06/05 15:18:35;;;;;;;;;;;25.30;99.90;;;;;;5092906;28;19908;-81
2022/06/05 15:21:24;;;;;;;;;;;25.10;99.90;;;;;;5084787;28;19923;-85
2022/06/05 15:24:20;;;;;;;;;;;24.90;99.90;;;;;;5088822;28;19909;-85
2022/06/05 15:26:54;;;;;;;;;;;24.60;99.90;;;;;;5030925;28;20016;-85
2022/06/05 15:29:23;;;;;;;;;;;24.30;99.90;;;;;;5031298;28;20299;-85
2022/06/05 15:32:03;;;;;;;;;;;24.10;99.90;;;;;;5047612;28;19958;-85